AEA1144 LPPR-LEMD
Flight info
| Callsign | AEA1144 |
|---|---|
| Flight time | 0h 50m |
| Altitude | 28000 |
| Route | BELDU UL155 ADORO L155 ZMR |
| Aircraft | B738/M-SDE2E3FGHIRWXY/LB1 |
Departure
| Time | 2026-05-07 10:02 |
|---|---|
| Airport | Francisco de Sá Carneiro Airport (LPPR) |
Arrival
| Time | 2026-05-07 10:52 |
|---|---|
| Airport | Adolfo Suárez Madrid–Barajas Airport (LEMD) |
| Time | Latitude | Longitude | Altitude | Speed | Heading |
|---|---|---|---|---|---|
| 2026-05-07 09:34 | 41.23903 | -8.67392 | 241 ft | 0 kts | 124° |
| 2026-05-07 09:51 | 41.23904 | -8.67392 | 241 ft | 1 kts | 124° |
| 2026-05-07 09:51 | 41.23912 | -8.67419 | 241 ft | 4 kts | 100° |
| 2026-05-07 09:51 | 41.23918 | -8.67451 | 239 ft | 4 kts | 94° |
| 2026-05-07 09:52 | 41.23913 | -8.67482 | 237 ft | 4 kts | 48° |
| 2026-05-07 09:52 | 41.23899 | -8.67497 | 242 ft | 1 kts | 29° |
| 2026-05-07 09:52 | 41.23897 | -8.67499 | 242 ft | 1 kts | 29° |
| 2026-05-07 09:54 | 41.23898 | -8.67499 | 236 ft | 1 kts | 29° |
| 2026-05-07 09:55 | 41.23928 | -8.67475 | 238 ft | 7 kts | 32° |
| 2026-05-07 09:55 | 41.23971 | -8.67437 | 241 ft | 7 kts | 31° |
| 2026-05-07 09:55 | 41.24025 | -8.67419 | 241 ft | 9 kts | 357° |
| 2026-05-07 09:55 | 41.24097 | -8.67443 | 241 ft | 12 kts | 341° |
| 2026-05-07 09:56 | 41.24180 | -8.67505 | 240 ft | 16 kts | 318° |
| 2026-05-07 09:56 | 41.24264 | -8.67637 | 232 ft | 22 kts | 308° |
| 2026-05-07 09:56 | 41.24407 | -8.67733 | 223 ft | 16 kts | 347° |
| 2026-05-07 09:56 | 41.24506 | -8.67764 | 218 ft | 18 kts | 348° |
| 2026-05-07 09:57 | 41.24642 | -8.67797 | 213 ft | 23 kts | 349° |
| 2026-05-07 09:57 | 41.24810 | -8.67867 | 211 ft | 24 kts | 331° |
| 2026-05-07 09:57 | 41.24970 | -8.67942 | 204 ft | 24 kts | 353° |
| 2026-05-07 09:57 | 41.25133 | -8.67981 | 188 ft | 23 kts | 349° |
| 2026-05-07 09:58 | 41.25291 | -8.68021 | 181 ft | 23 kts | 348° |
| 2026-05-07 09:58 | 41.25451 | -8.68063 | 174 ft | 20 kts | 349° |
| 2026-05-07 09:58 | 41.25530 | -8.68083 | 171 ft | 0 kts | 349° |
| 2026-05-07 10:00 | 41.25533 | -8.68083 | 171 ft | 4 kts | 349° |
| 2026-05-07 10:00 | 41.25611 | -8.68103 | 169 ft | 18 kts | 349° |
| 2026-05-07 10:01 | 41.25671 | -8.68233 | 170 ft | 19 kts | 263° |
| 2026-05-07 10:01 | 41.25597 | -8.68335 | 173 ft | 18 kts | 168° |
| 2026-05-07 10:01 | 41.25463 | -8.68298 | 175 ft | 31 kts | 169° |
| 2026-05-07 10:01 | 41.25022 | -8.68184 | 185 ft | 96 kts | 169° |
| 2026-05-07 10:02 | 41.24187 | -8.67965 | 215 ft | 147 kts | 171° |
| 2026-05-07 10:02 | 41.23089 | -8.67695 | 557 ft | 165 kts | 170° |
| 2026-05-07 10:02 | 41.21933 | -8.67379 | 1186 ft | 174 kts | 171° |
| 2026-05-07 10:02 | 41.20707 | -8.67072 | 1787 ft | 185 kts | 171° |
| 2026-05-07 10:03 | 41.19451 | -8.66804 | 2440 ft | 186 kts | 170° |
| 2026-05-07 10:03 | 41.18164 | -8.66460 | 3038 ft | 193 kts | 169° |
| 2026-05-07 10:03 | 41.16831 | -8.66134 | 3572 ft | 199 kts | 171° |
| 2026-05-07 10:03 | 41.15419 | -8.65771 | 3815 ft | 218 kts | 168° |
| 2026-05-07 10:04 | 41.13888 | -8.65315 | 4096 ft | 230 kts | 168° |
| 2026-05-07 10:04 | 41.12410 | -8.64457 | 4491 ft | 238 kts | 137° |
| 2026-05-07 10:04 | 41.11781 | -8.63285 | 4845 ft | 239 kts | 114° |
| 2026-05-07 10:04 | 41.11533 | -8.61080 | 5205 ft | 250 kts | 89° |
| 2026-05-07 10:05 | 41.11798 | -8.58703 | 5428 ft | 268 kts | 80° |
| 2026-05-07 10:05 | 41.12213 | -8.56264 | 6025 ft | 272 kts | 79° |
| 2026-05-07 10:05 | 41.12655 | -8.53823 | 6652 ft | 274 kts | 79° |
| 2026-05-07 10:05 | 41.13101 | -8.51356 | 7224 ft | 276 kts | 79° |
| 2026-05-07 10:06 | 41.13546 | -8.48858 | 7791 ft | 279 kts | 79° |
| 2026-05-07 10:06 | 41.13988 | -8.46330 | 8341 ft | 282 kts | 79° |
| 2026-05-07 10:06 | 41.14423 | -8.43810 | 8902 ft | 284 kts | 79° |
| 2026-05-07 10:06 | 41.14864 | -8.41232 | 9433 ft | 287 kts | 79° |
| 2026-05-07 10:07 | 41.15306 | -8.38625 | 9966 ft | 290 kts | 79° |
| 2026-05-07 10:07 | 41.15753 | -8.35963 | 10189 ft | 303 kts | 79° |
| 2026-05-07 10:07 | 41.16222 | -8.33158 | 10318 ft | 318 kts | 79° |
| 2026-05-07 10:07 | 41.16711 | -8.30220 | 10428 ft | 332 kts | 79° |
| 2026-05-07 10:08 | 41.17217 | -8.27173 | 10541 ft | 345 kts | 79° |
| 2026-05-07 10:08 | 41.17741 | -8.24006 | 10658 ft | 356 kts | 78° |
| 2026-05-07 10:08 | 41.18269 | -8.20814 | 10937 ft | 361 kts | 79° |
| 2026-05-07 10:08 | 41.18807 | -8.17550 | 11304 ft | 363 kts | 79° |
| 2026-05-07 10:09 | 41.19349 | -8.14260 | 11668 ft | 365 kts | 79° |
| 2026-05-07 10:09 | 41.19890 | -8.10962 | 12010 ft | 367 kts | 78° |
| 2026-05-07 10:09 | 41.20434 | -8.07640 | 12301 ft | 370 kts | 78° |
| 2026-05-07 10:09 | 41.20981 | -8.04292 | 12642 ft | 371 kts | 78° |
| 2026-05-07 10:10 | 41.21530 | -8.00937 | 12963 ft | 373 kts | 78° |
| 2026-05-07 10:10 | 41.22078 | -7.97567 | 13255 ft | 375 kts | 78° |
| 2026-05-07 10:10 | 41.22631 | -7.94168 | 13585 ft | 376 kts | 78° |
| 2026-05-07 10:10 | 41.23184 | -7.90759 | 13870 ft | 379 kts | 78° |
| 2026-05-07 10:11 | 41.23736 | -7.87340 | 14397 ft | 384 kts | 78° |
| 2026-05-07 10:11 | 41.24297 | -7.83871 | 15204 ft | 383 kts | 78° |
| 2026-05-07 10:11 | 41.24861 | -7.80378 | 15823 ft | 389 kts | 78° |
| 2026-05-07 10:11 | 41.25430 | -7.76842 | 16467 ft | 393 kts | 78° |
| 2026-05-07 10:12 | 41.26003 | -7.73277 | 17187 ft | 396 kts | 78° |
| 2026-05-07 10:12 | 41.26583 | -7.69654 | 17878 ft | 400 kts | 78° |
| 2026-05-07 10:12 | 41.27165 | -7.66011 | 18458 ft | 405 kts | 78° |
| 2026-05-07 10:12 | 41.27753 | -7.62328 | 19041 ft | 408 kts | 78° |
| 2026-05-07 10:13 | 41.28342 | -7.58623 | 19624 ft | 411 kts | 78° |
| 2026-05-07 10:13 | 41.28929 | -7.54929 | 20185 ft | 414 kts | 78° |
| 2026-05-07 10:13 | 41.29524 | -7.51174 | 20768 ft | 417 kts | 78° |
| 2026-05-07 10:13 | 41.30123 | -7.47378 | 21336 ft | 420 kts | 78° |
| 2026-05-07 10:14 | 41.30727 | -7.43548 | 21863 ft | 423 kts | 78° |
| 2026-05-07 10:14 | 41.31326 | -7.39745 | 22398 ft | 426 kts | 78° |
| 2026-05-07 10:14 | 41.31936 | -7.35857 | 22930 ft | 429 kts | 78° |
| 2026-05-07 10:14 | 41.32547 | -7.31955 | 23464 ft | 432 kts | 78° |
| 2026-05-07 10:15 | 41.33162 | -7.28026 | 23903 ft | 434 kts | 78° |
| 2026-05-07 10:15 | 41.33779 | -7.24067 | 24331 ft | 437 kts | 78° |
| 2026-05-07 10:15 | 41.34395 | -7.20102 | 24708 ft | 440 kts | 78° |
| 2026-05-07 10:15 | 41.35019 | -7.16079 | 25090 ft | 444 kts | 78° |
| 2026-05-07 10:16 | 41.35644 | -7.12041 | 25461 ft | 447 kts | 78° |
| 2026-05-07 10:16 | 41.36263 | -7.08032 | 25833 ft | 449 kts | 77° |
| 2026-05-07 10:16 | 41.36896 | -7.03921 | 26188 ft | 452 kts | 77° |
| 2026-05-07 10:16 | 41.37527 | -6.99817 | 26548 ft | 455 kts | 77° |
| 2026-05-07 10:17 | 41.38162 | -6.95669 | 26894 ft | 458 kts | 77° |
| 2026-05-07 10:17 | 41.38802 | -6.91481 | 27199 ft | 462 kts | 78° |
| 2026-05-07 10:17 | 41.39443 | -6.87273 | 27572 ft | 464 kts | 78° |
| 2026-05-07 10:17 | 41.40077 | -6.83100 | 27932 ft | 464 kts | 78° |
| 2026-05-07 10:18 | 41.40718 | -6.78874 | 27903 ft | 466 kts | 78° |
| 2026-05-07 10:18 | 41.41356 | -6.74655 | 27910 ft | 463 kts | 78° |
| 2026-05-07 10:18 | 41.41989 | -6.70455 | 27903 ft | 460 kts | 78° |
| 2026-05-07 10:18 | 41.42620 | -6.66261 | 27925 ft | 461 kts | 78° |
| 2026-05-07 10:19 | 41.43249 | -6.62069 | 27918 ft | 462 kts | 78° |
| 2026-05-07 10:19 | 41.43872 | -6.57909 | 27921 ft | 462 kts | 78° |
| 2026-05-07 10:19 | 41.44500 | -6.53704 | 27910 ft | 463 kts | 78° |
| 2026-05-07 10:19 | 41.45127 | -6.49487 | 27919 ft | 463 kts | 78° |
| 2026-05-07 10:20 | 41.45750 | -6.45295 | 27908 ft | 461 kts | 78° |
| 2026-05-07 10:20 | 41.46373 | -6.41086 | 27915 ft | 461 kts | 79° |
| 2026-05-07 10:20 | 41.46992 | -6.36897 | 27914 ft | 460 kts | 79° |
| 2026-05-07 10:20 | 41.47608 | -6.32722 | 27919 ft | 460 kts | 79° |
| 2026-05-07 10:21 | 41.48220 | -6.28534 | 27915 ft | 460 kts | 80° |
| 2026-05-07 10:21 | 41.48680 | -6.24303 | 27925 ft | 461 kts | 83° |
| 2026-05-07 10:21 | 41.49013 | -6.20049 | 27923 ft | 461 kts | 85° |
| 2026-05-07 10:21 | 41.49303 | -6.15783 | 27919 ft | 462 kts | 85° |
| 2026-05-07 10:22 | 41.49586 | -6.11507 | 27910 ft | 461 kts | 85° |
| 2026-05-07 10:22 | 41.49877 | -6.07252 | 27916 ft | 460 kts | 85° |
| 2026-05-07 10:22 | 41.50175 | -6.03054 | 27920 ft | 460 kts | 85° |
| 2026-05-07 10:22 | 41.50484 | -5.98812 | 27917 ft | 459 kts | 85° |
| 2026-05-07 10:23 | 41.50796 | -5.94571 | 27915 ft | 459 kts | 85° |
| 2026-05-07 10:23 | 41.51107 | -5.90333 | 27914 ft | 459 kts | 85° |
| 2026-05-07 10:23 | 41.51417 | -5.86096 | 27919 ft | 459 kts | 85° |
| 2026-05-07 10:23 | 41.51725 | -5.81856 | 27927 ft | 459 kts | 85° |
| 2026-05-07 10:24 | 41.52031 | -5.77614 | 27920 ft | 459 kts | 85° |
| 2026-05-07 10:24 | 41.52336 | -5.73367 | 27921 ft | 459 kts | 85° |
| 2026-05-07 10:24 | 41.52552 | -5.69115 | 27902 ft | 459 kts | 94° |
| 2026-05-07 10:24 | 41.51939 | -5.64974 | 27937 ft | 455 kts | 111° |
| 2026-05-07 10:25 | 41.50538 | -5.61267 | 27913 ft | 452 kts | 127° |
| 2026-05-07 10:25 | 41.48426 | -5.58117 | 27932 ft | 449 kts | 138° |
| 2026-05-07 10:25 | 41.46155 | -5.55335 | 27921 ft | 450 kts | 140° |
| 2026-05-07 10:25 | 41.43813 | -5.52547 | 27909 ft | 451 kts | 140° |
| 2026-05-07 10:26 | 41.41470 | -5.49770 | 27910 ft | 451 kts | 140° |
| 2026-05-07 10:26 | 41.39124 | -5.46973 | 27917 ft | 451 kts | 140° |
| 2026-05-07 10:26 | 41.36785 | -5.44164 | 27904 ft | 452 kts | 140° |
| 2026-05-07 10:26 | 41.34451 | -5.41341 | 27912 ft | 452 kts | 139° |
| 2026-05-07 10:27 | 41.32159 | -5.38559 | 27912 ft | 452 kts | 139° |
| 2026-05-07 10:27 | 41.29837 | -5.35735 | 27913 ft | 452 kts | 139° |
| 2026-05-07 10:27 | 41.27506 | -5.32902 | 27913 ft | 453 kts | 140° |
| 2026-05-07 10:27 | 41.25179 | -5.30075 | 27906 ft | 453 kts | 140° |
| 2026-05-07 10:28 | 41.22847 | -5.27246 | 27906 ft | 453 kts | 140° |
| 2026-05-07 10:28 | 41.20521 | -5.24426 | 27910 ft | 452 kts | 140° |
| 2026-05-07 10:28 | 41.18195 | -5.21610 | 27913 ft | 452 kts | 140° |
| 2026-05-07 10:28 | 41.15868 | -5.18797 | 27916 ft | 452 kts | 140° |
| 2026-05-07 10:29 | 41.13533 | -5.15977 | 27913 ft | 452 kts | 140° |
| 2026-05-07 10:29 | 41.11218 | -5.13185 | 27914 ft | 451 kts | 140° |
| 2026-05-07 10:29 | 41.08893 | -5.10382 | 27911 ft | 451 kts | 140° |
| 2026-05-07 10:30 | 41.04265 | -5.04813 | 27908 ft | 451 kts | 140° |
| 2026-05-07 10:30 | 41.01942 | -5.02020 | 27911 ft | 451 kts | 140° |
| 2026-05-07 10:30 | 40.99608 | -4.99219 | 27908 ft | 450 kts | 140° |
| 2026-05-07 10:30 | 40.97298 | -4.96448 | 27901 ft | 446 kts | 140° |
| 2026-05-07 10:31 | 40.95001 | -4.93695 | 27909 ft | 445 kts | 140° |
| 2026-05-07 10:31 | 40.92701 | -4.90943 | 27919 ft | 446 kts | 140° |
| 2026-05-07 10:31 | 40.90419 | -4.88215 | 27713 ft | 449 kts | 140° |
| 2026-05-07 10:31 | 40.88111 | -4.85457 | 27245 ft | 444 kts | 140° |
| 2026-05-07 10:32 | 40.85834 | -4.82738 | 26713 ft | 438 kts | 140° |
| 2026-05-07 10:32 | 40.83577 | -4.80046 | 26162 ft | 433 kts | 140° |
| 2026-05-07 10:32 | 40.81348 | -4.77390 | 25613 ft | 429 kts | 140° |
| 2026-05-07 10:32 | 40.79140 | -4.74762 | 25085 ft | 425 kts | 140° |
| 2026-05-07 10:33 | 40.76953 | -4.72162 | 24561 ft | 422 kts | 140° |
| 2026-05-07 10:33 | 40.74783 | -4.69584 | 24032 ft | 418 kts | 140° |
| 2026-05-07 10:33 | 40.72619 | -4.67017 | 23509 ft | 416 kts | 140° |
| 2026-05-07 10:33 | 40.70471 | -4.64470 | 22869 ft | 413 kts | 140° |
| 2026-05-07 10:34 | 40.68345 | -4.61951 | 22323 ft | 409 kts | 140° |
| 2026-05-07 10:34 | 40.66264 | -4.59485 | 21811 ft | 405 kts | 140° |
| 2026-05-07 10:34 | 40.64176 | -4.57017 | 21281 ft | 402 kts | 140° |
| 2026-05-07 10:35 | 40.62059 | -4.54485 | 20771 ft | 398 kts | 138° |
| 2026-05-07 10:35 | 40.60149 | -4.51907 | 20314 ft | 396 kts | 135° |
| 2026-05-07 10:35 | 40.58303 | -4.49229 | 19870 ft | 393 kts | 133° |
| 2026-05-07 10:35 | 40.56485 | -4.46540 | 19430 ft | 394 kts | 133° |
| 2026-05-07 10:36 | 40.54658 | -4.43847 | 18996 ft | 395 kts | 133° |
| 2026-05-07 10:36 | 40.52816 | -4.41157 | 18542 ft | 395 kts | 134° |
| 2026-05-07 10:36 | 40.50972 | -4.38489 | 18065 ft | 392 kts | 134° |
| 2026-05-07 10:36 | 40.49136 | -4.35846 | 17563 ft | 388 kts | 134° |
| 2026-05-07 10:37 | 40.47345 | -4.33278 | 17105 ft | 385 kts | 134° |
| 2026-05-07 10:37 | 40.45544 | -4.30701 | 16653 ft | 381 kts | 134° |
| 2026-05-07 10:37 | 40.43756 | -4.28145 | 16218 ft | 377 kts | 134° |
| 2026-05-07 10:37 | 40.41992 | -4.25625 | 15782 ft | 374 kts | 134° |
| 2026-05-07 10:38 | 40.40235 | -4.23117 | 15367 ft | 371 kts | 134° |
| 2026-05-07 10:38 | 40.38485 | -4.20621 | 14944 ft | 370 kts | 134° |
| 2026-05-07 10:38 | 40.36744 | -4.18140 | 14526 ft | 367 kts | 134° |
| 2026-05-07 10:38 | 40.35052 | -4.15704 | 14109 ft | 367 kts | 130° |
| 2026-05-07 10:39 | 40.33773 | -4.12832 | 13719 ft | 365 kts | 111° |
| 2026-05-07 10:39 | 40.32966 | -4.09696 | 13354 ft | 360 kts | 109° |
| 2026-05-07 10:39 | 40.32215 | -4.06595 | 12981 ft | 356 kts | 108° |
| 2026-05-07 10:39 | 40.31468 | -4.03501 | 12610 ft | 353 kts | 109° |
| 2026-05-07 10:40 | 40.30724 | -4.00450 | 12272 ft | 351 kts | 109° |
| 2026-05-07 10:40 | 40.29975 | -3.97420 | 11904 ft | 346 kts | 109° |
| 2026-05-07 10:40 | 40.29242 | -3.94481 | 11559 ft | 332 kts | 109° |
| 2026-05-07 10:40 | 40.28537 | -3.91668 | 11228 ft | 319 kts | 109° |
| 2026-05-07 10:41 | 40.27855 | -3.88958 | 10910 ft | 307 kts | 109° |
| 2026-05-07 10:41 | 40.27206 | -3.86383 | 10616 ft | 296 kts | 110° |
| 2026-05-07 10:41 | 40.26568 | -3.83859 | 10340 ft | 290 kts | 110° |
| 2026-05-07 10:41 | 40.25934 | -3.81353 | 10067 ft | 287 kts | 110° |
| 2026-05-07 10:42 | 40.25311 | -3.78895 | 9874 ft | 282 kts | 110° |
| 2026-05-07 10:42 | 40.24686 | -3.76430 | 9493 ft | 285 kts | 109° |
| 2026-05-07 10:42 | 40.24067 | -3.73991 | 9230 ft | 285 kts | 110° |
| 2026-05-07 10:42 | 40.23450 | -3.71562 | 8992 ft | 282 kts | 110° |
| 2026-05-07 10:43 | 40.22824 | -3.69106 | 8751 ft | 280 kts | 110° |
| 2026-05-07 10:43 | 40.22214 | -3.66705 | 8345 ft | 279 kts | 110° |
| 2026-05-07 10:43 | 40.21609 | -3.64332 | 8069 ft | 271 kts | 110° |
| 2026-05-07 10:43 | 40.21018 | -3.62014 | 7785 ft | 266 kts | 110° |
| 2026-05-07 10:44 | 40.20427 | -3.59698 | 7517 ft | 269 kts | 110° |
| 2026-05-07 10:44 | 40.19830 | -3.57359 | 7263 ft | 272 kts | 109° |
| 2026-05-07 10:44 | 40.19226 | -3.55000 | 6982 ft | 274 kts | 109° |
| 2026-05-07 10:44 | 40.18633 | -3.52689 | 6763 ft | 270 kts | 109° |
| 2026-05-07 10:45 | 40.18033 | -3.50344 | 6482 ft | 269 kts | 109° |
| 2026-05-07 10:45 | 40.17543 | -3.47988 | 6130 ft | 271 kts | 94° |
| 2026-05-07 10:45 | 40.17850 | -3.45564 | 5807 ft | 272 kts | 65° |
| 2026-05-07 10:45 | 40.18941 | -3.43600 | 5693 ft | 263 kts | 45° |
| 2026-05-07 10:46 | 40.20254 | -3.41988 | 5463 ft | 258 kts | 41° |
| 2026-05-07 10:46 | 40.21773 | -3.40595 | 4828 ft | 272 kts | 30° |
| 2026-05-07 10:46 | 40.23456 | -3.39394 | 4480 ft | 273 kts | 28° |
| 2026-05-07 10:46 | 40.25144 | -3.38476 | 4372 ft | 263 kts | 9° |
| 2026-05-07 10:47 | 40.26921 | -3.38441 | 4348 ft | 248 kts | 353° |
| 2026-05-07 10:47 | 40.28579 | -3.38741 | 4260 ft | 233 kts | 352° |
| 2026-05-07 10:47 | 40.30091 | -3.39252 | 4120 ft | 219 kts | 332° |
| 2026-05-07 10:47 | 40.31350 | -3.40269 | 4012 ft | 206 kts | 327° |
| 2026-05-07 10:48 | 40.32488 | -3.41313 | 3979 ft | 196 kts | 323° |
| 2026-05-07 10:48 | 40.33571 | -3.42390 | 3986 ft | 194 kts | 322° |
| 2026-05-07 10:48 | 40.34601 | -3.43439 | 3966 ft | 185 kts | 322° |
| 2026-05-07 10:48 | 40.35612 | -3.44471 | 3962 ft | 179 kts | 322° |
| 2026-05-07 10:49 | 40.36577 | -3.45458 | 3969 ft | 178 kts | 322° |
| 2026-05-07 10:49 | 40.37558 | -3.46460 | 3982 ft | 180 kts | 322° |
| 2026-05-07 10:49 | 40.38557 | -3.47480 | 3856 ft | 185 kts | 322° |
| 2026-05-07 10:49 | 40.39570 | -3.48514 | 3643 ft | 181 kts | 322° |
| 2026-05-07 10:50 | 40.40541 | -3.49514 | 3333 ft | 175 kts | 321° |
| 2026-05-07 10:50 | 40.41466 | -3.50485 | 3114 ft | 162 kts | 322° |
| 2026-05-07 10:50 | 40.42348 | -3.51384 | 2940 ft | 159 kts | 324° |
| 2026-05-07 10:50 | 40.43233 | -3.52261 | 2742 ft | 161 kts | 323° |
| 2026-05-07 10:51 | 40.44095 | -3.53169 | 2491 ft | 160 kts | 323° |
| 2026-05-07 10:51 | 40.44695 | -3.53763 | 2331 ft | 159 kts | 324° |
| 2026-05-07 10:51 | 40.45852 | -3.54933 | 2070 ft | 156 kts | 323° |
| 2026-05-07 10:51 | 40.46429 | -3.55508 | 1983 ft | 153 kts | 321° |
| 2026-05-07 10:52 | 40.47167 | -3.56259 | 1980 ft | 107 kts | 322° |
| 2026-05-07 10:52 | 40.47595 | -3.56693 | 1982 ft | 51 kts | 322° |
| 2026-05-07 10:52 | 40.47754 | -3.56920 | 1979 ft | 25 kts | 299° |
| 2026-05-07 10:52 | 40.47798 | -3.57044 | 1979 ft | 14 kts | 292° |
| 2026-05-07 10:53 | 40.47757 | -3.57121 | 1979 ft | 13 kts | 170° |
| 2026-05-07 10:53 | 40.47684 | -3.57056 | 1979 ft | 13 kts | 142° |
| 2026-05-07 10:53 | 40.47609 | -3.56981 | 1979 ft | 16 kts | 142° |
| 2026-05-07 10:53 | 40.47510 | -3.56879 | 1983 ft | 20 kts | 142° |
| 2026-05-07 10:54 | 40.47386 | -3.56754 | 1982 ft | 25 kts | 142° |
| 2026-05-07 10:54 | 40.47240 | -3.56602 | 1980 ft | 29 kts | 142° |
| 2026-05-07 10:54 | 40.47061 | -3.56462 | 1980 ft | 31 kts | 164° |
| 2026-05-07 10:54 | 40.46936 | -3.56451 | 1982 ft | 11 kts | 184° |
| 2026-05-07 10:55 | 40.46880 | -3.56506 | 1980 ft | 11 kts | 259° |
| 2026-05-07 10:55 | 40.46880 | -3.56607 | 1981 ft | 11 kts | 259° |
| 2026-05-07 10:55 | 40.46817 | -3.56647 | 1980 ft | 11 kts | 183° |
| 2026-05-07 10:55 | 40.46734 | -3.56655 | 1980 ft | 14 kts | 184° |
| 2026-05-07 10:56 | 40.46665 | -3.56697 | 1981 ft | 11 kts | 262° |
| 2026-05-07 10:56 | 40.46662 | -3.56798 | 1980 ft | 11 kts | 269° |
| 2026-05-07 10:56 | 40.46662 | -3.56839 | 1980 ft | 0 kts | 269° |